Tiempo atmosférico en la estación meteorológica de Zorita, Cáceres (413 m.)



Fecha
DESCASC
Temp. máxima en grados centígrados (hora)
DESCASC
Temp. mínima en grados centígrados (hora)
DESCASC
Temp. media en grados centígrados
DESCASC
Racha de viento máxima en m/sg (hora)
DESCASC
Velocidad máxima media en intervalos de 10 minutos(hora)
DESCASC
Precipitaciones diarias en mm
DESCASC
Precipitaciones de 00:00 a 06:00 en mm
DESCASC
Precipitaciones de 06:00 a 12:00 en mm
DESCASC
Precipitaciones de 12:00 a 18:00 en mm
DESCASC
Precipitaciones de 18:00 a 24:00 en mm
DESCASC
18-04-2019 14.7 (16:10) 8.8 (06:10) 11.8 8.89 (14:50) 6.67 (14:50) 0.6 0.6 0 0 0
17-04-2019 20.7 (15:40) 11.3 (23:40) 16 11.94 (19:00) 7.78 (18:20) 1.4 0 0 0 1.4
16-04-2019 22.5 (18:20) 7.5 (00:00) 15 9.17 (15:00) 5.83 (16:20) 0 0 0 0 0
15-04-2019 22 (14:00) 12.4 (00:00) 17.2 13.61 (17:00) 9.72 (17:00) 0 0 0 0 0
14-04-2019 22 (17:50) 12.2 (00:00) 17.1 8.61 (01:10) 6.39 (01:10) 0 0 0 0 0
13-04-2019 22.8 (17:00) 8.2 (00:00) 15.5 11.67 (16:40) 6.39 (20:50) 0 0 0 0 0
12-04-2019 19.9 (18:30) 6.2 (00:00) 13 8.06 (14:30) 4.17 (00:10) 0 0 0 0 0
11-04-2019 -- (--) -- (--) -- -- (--) -- (--) 0 0 0 0 0
10-04-2019 16.8 (17:40) 5.9 (00:00) 11.3 13.89 (16:40) 10 (16:40) 0.6 0 0 0 0.6
09-04-2019 16.2 (18:00) 6 (00:00) 11.1 14.17 (18:10) 10.83 (18:10) 1.6 0 0.8 0.8 0
08-04-2019 17.1 (17:10) 8.7 (00:00) 12.9 14.44 (19:30) 9.17 (21:00) 7.2 1.6 3.8 0.2 1.6
07-04-2019 12.8 (15:20) 7.1 (00:00) 10 9.72 (14:10) 6.94 (02:50) 2 0.6 0 0 1.4
06-04-2019 10.5 (13:30) 4.8 (00:00) 7.7 17.22 (13:50) 10 (14:00) 3 0 0.8 2.2 0
05-04-2019 11.7 (17:30) 4.2 (00:00) 7.9 14.44 (17:10) 10.28 (18:30) 6.4 4.6 1.6 0.2 0
04-04-2019 16.6 (17:30) 3.2 (00:00) 9.9 11.67 (03:10) 8.89 (02:40) 0 0 0 0 0
03-04-2019 17.3 (17:20) 5.8 (00:00) 11.5 14.17 (19:40) 9.72 (19:50) 0 0 0 0 0
02-04-2019 20.5 (17:40) 7.1 (00:00) 13.8 9.17 (19:20) 6.39 (19:20) 0 0 0 0 0
01-04-2019 18.6 (17:10) 11.1 (00:00) 14.9 11.39 (18:00) 8.06 (18:10) 2.6 0 0 2.6 0
31-03-2019 19.5 (14:00) 11.6 (00:00) 15.6 10 (15:00) 7.22 (15:00) 0.4 0 0 0.4 0
30-03-2019 20.9 (15:50) 9.4 (00:00) 15.1 8.89 (21:20) 6.11 (22:20) 0 0 0 0 0
29-03-2019 19.6 (16:00) 10.1 (00:00) 14.9 9.44 (02:50) 6.67 (03:00) 0 0 0 0 0
28-03-2019 20.8 (16:50) 8.9 (00:00) 14.8 12.78 (14:40) 8.61 (14:40) 0 0 0 0 0
27-03-2019 20.4 (17:10) 8.8 (00:00) 14.6 11.94 (02:00) 8.33 (05:10) 0 0 0 0 0
26-03-2019 23.3 (15:30) 9.9 (00:00) 16.6 15.28 (13:00) 10.28 (13:00) 0 0 0 0 0
25-03-2019 23.2 (15:50) 10.8 (00:00) 17 11.94 (13:50) 7.78 (12:10) 0 0 0 0 0
24-03-2019 21.6 (16:50) 10.6 (00:00) 16.1 12.5 (10:30) 8.89 (10:30) 0 0 0 0 0
23-03-2019 21 (16:40) 11.2 (00:00) 16.1 13.89 (16:10) 9.44 (12:50) 0 0 0 0 0
22-03-2019 18.9 (16:10) 8.5 (00:00) 13.7 11.39 (13:30) 7.78 (13:30) 0 0 0 0 0
21-03-2019 17.1 (15:50) 7.4 (00:00) 12.3 10.56 (09:20) 7.78 (09:30) 0 0 0 0 0

Gráficas

Temp. máximas Temp. mínimas Temp. medias Precipitaciones Rachas de viento máximas Velocidades máximas media en intervalos de 10 minutos

Datos horarios

Fecha y hora oficial Temperatura (ºC) Velocidad del viento (km/h) Dirección del viento Racha (km/h) Dirección de racha Precipitación (mm) Presión (hPa) Tendencia (hPa) Humedad (%)
2019-04-19 23:00:00 11.8 -- -- 24 Norte 0 -- -- 78
2019-04-19 22:00:00 12 -- -- 30 Norte 0 -- -- 77
2019-04-19 21:00:00 12.3 -- -- 31 Norte 0 -- -- 78
2019-04-19 20:00:00 12.5 -- -- 47 Norte 0 -- -- 76
2019-04-19 19:00:00 13.9 -- -- 49 Norte 0 -- -- 69
2019-04-19 18:00:00 15.3 -- -- 41 Norte 5.8 -- -- 73
2019-04-19 17:00:00 17.2 -- -- 22 Norte 0 -- -- 56
2019-04-19 16:00:00 16 -- -- 26 Norte 0 -- -- 61
2019-04-19 15:00:00 16.3 -- -- 15 Norte 0 -- -- 59
2019-04-19 14:00:00 16.2 -- -- 19 Norte 0 -- -- 62
2019-04-19 13:00:00 14.3 -- -- 23 Norte 0 -- -- 68
2019-04-19 12:00:00 13.6 -- -- 19 Norte 0 -- -- 72
2019-04-19 11:00:00 11.2 -- -- 18 Norte 0 -- -- 87
2019-04-19 10:00:00 10.2 -- -- 15 Norte 0 -- -- 90
2019-04-19 09:00:00 9.8 -- -- 20 Norte 0 -- -- 92
2019-04-19 08:00:00 9.5 -- -- 16 Norte 0 -- -- 93
2019-04-19 07:00:00 9.4 -- -- 18 Norte 0 -- -- 94
2019-04-19 06:00:00 9.4 -- -- 16 Norte 0 -- -- 95
2019-04-19 05:00:00 9.9 -- -- 10 Norte 0 -- -- 89
2019-04-19 04:00:00 9.6 -- -- 7 Norte 0 -- -- 91
2019-04-19 03:00:00 9.2 -- -- 8 Norte 0 -- -- 94
2019-04-19 02:00:00 9.2 -- -- 11 Norte 0 -- -- 95
2019-04-19 01:00:00 9.3 -- -- 16 Norte 0 -- -- 93
2019-04-19 00:00:00 9.9 -- -- 11 Norte 0 -- -- 88
2019-04-18 23:00:00 11.1 -- -- 23 Norte 0 -- -- 82
2019-04-18 22:00:00 11.4 -- -- 12 Norte 0 -- -- 74
2019-04-18 21:00:00 12.8 -- -- 20 Norte 0 -- -- 66
2019-04-18 20:00:00 13.5 -- -- 21 Norte 0 -- -- 66
2019-04-18 19:00:00 14.1 -- -- 8 Norte 0 -- -- 71
2019-04-18 18:00:00 14.1 -- -- 13 Norte 0 -- -- 71
2019-04-18 17:00:00 14.5 -- -- 18 Norte 0 -- -- 62
2019-04-18 16:00:00 14.5 -- -- 26 Norte 0 -- -- 68
2019-04-18 15:00:00 12.9 -- -- 32 Norte 0 -- -- 72
2019-04-18 14:00:00 12.9 -- -- 19 Norte 0 -- -- 75
2019-04-18 13:00:00 13.7 -- -- 16 Norte 0 -- -- 74
2019-04-18 12:00:00 14.3 -- -- 15 Norte 0 -- -- 68
2019-04-18 11:00:00 13.2 -- -- 10 Norte 0 -- -- 82
2019-04-18 10:00:00 11.4 -- -- 5 Norte 0 -- -- 85
2019-04-18 09:00:00 10.6 -- -- 9 Norte 0 -- -- 86
2019-04-18 08:00:00 10.3 -- -- 9 Norte 0 -- -- 88
2019-04-18 07:00:00 9.2 -- -- 10 Norte 0 -- -- 93
2019-04-18 06:00:00 9.1 -- -- 9 Norte 0 -- -- 89
2019-04-18 05:00:00 10.4 -- -- 9 Norte 0 -- -- 89
2019-04-18 04:00:00 11.1 -- -- 6 Norte 0.2 -- -- 88
2019-04-18 03:00:00 11.2 -- -- 12 Norte 0.4 -- -- 89
2019-04-18 02:00:00 11.4 -- -- 17 Norte 0 -- -- 86
2019-04-18 01:00:00 11.1 -- -- 14 Norte 0 -- -- 89
2019-04-18 00:00:00 11.4 -- -- 13 Norte 0.6 -- -- 86
2019-04-17 23:00:00 11.5 -- -- 20 Norte 0.8 -- -- 87
2019-04-17 22:00:00 12.8 -- -- 13 Norte 0 -- -- 76
2019-04-17 21:00:00 13 -- -- 25 Norte 0 -- -- 73
2019-04-17 20:00:00 13.5 -- -- 36 Norte 0 -- -- 70
2019-04-17 19:00:00 14.9 -- -- 43 Norte 0 -- -- 72
2019-04-17 18:00:00 18.8 -- -- 39 Norte 0 -- -- 53
2019-04-17 17:00:00 20.2 -- -- 34 Norte 0 -- -- 44
2019-04-17 16:00:00 20.5 -- -- 23 Norte 0 -- -- 42
2019-04-17 15:00:00 19.5 -- -- 24 Norte 0 -- -- 42
2019-04-17 14:00:00 18.2 -- -- 22 Norte 0 -- -- 44
2019-04-17 13:00:00 18 -- -- 23 Norte 0 -- -- 45
2019-04-17 12:00:00 17.4 -- -- 23 Norte 0 -- -- 44
2019-04-17 11:00:00 16.4 -- -- 21 Norte 0 -- -- 50
2019-04-17 10:00:00 14.8 -- -- 22 Norte 0 -- -- 54
2019-04-17 09:00:00 13.6 -- -- 27 Norte 0 -- -- 54
2019-04-17 08:00:00 13.5 -- -- 22 Norte 0 -- -- 55
2019-04-17 07:00:00 13.2 -- -- 18 Norte 0 -- -- 59
2019-04-17 06:00:00 13.3 -- -- 24 Norte 0 -- -- 60
2019-04-17 05:00:00 13.7 -- -- 35 Norte 0 -- -- 61
2019-04-17 04:00:00 15.3 -- -- 33 Norte 0 -- -- 53
2019-04-17 03:00:00 15.3 -- -- 19 Norte 0 -- -- 49
2019-04-17 02:00:00 16.4 -- -- 20 Norte 0 -- -- 45
2019-04-17 01:00:00 16.8 -- -- 20 Norte 0 -- -- 43
2019-04-17 00:00:00 17 -- -- 15 Norte 0 -- -- 40
2019-04-16 23:00:00 17.7 -- -- 18 Norte 0 -- -- 38
2019-04-16 22:00:00 18.6 -- -- 22 Norte 0 -- -- 42
2019-04-16 21:00:00 19.7 -- -- 23 Norte 0 -- -- 40
2019-04-16 20:00:00 21.6 -- -- 26 Norte 0 -- -- 34
2019-04-16 19:00:00 22.3 -- -- 30 Norte 0 -- -- 32
2019-04-16 18:00:00 22.2 -- -- 30 Norte 0 -- -- 32
2019-04-16 17:00:00 22.1 -- -- 30 Norte 0 -- -- 29
2019-04-16 16:00:00 21.4 -- -- 32 Norte 0 -- -- 30
2019-04-16 15:00:00 20.1 -- -- 33 Norte 0 -- -- 39
2019-04-16 14:00:00 18.8 -- -- 31 Norte 0 -- -- 45
2019-04-16 13:00:00 18.4 -- -- 30 Norte 0 -- -- 46
2019-04-16 12:00:00 16.6 -- -- 25 Norte 0 -- -- 55
2019-04-16 11:00:00 14.4 -- -- 18 Norte 0 -- -- 64
2019-04-16 10:00:00 12 -- -- 19 Norte 0 -- -- 74
2019-04-16 09:00:00 9.8 -- -- 15 Norte 0 -- -- 78
2019-04-16 08:00:00 8.3 -- -- 13 Norte 0 -- -- 80
2019-04-16 07:00:00 8.2 -- -- 14 Norte 0 -- -- 83
2019-04-16 06:00:00 7.5 -- -- 12 Norte 0 -- -- 84
2019-04-16 05:00:00 9.1 -- -- 13 Norte 0 -- -- 77
2019-04-16 04:00:00 10.2 -- -- 19 Norte 0 -- -- 75
2019-04-16 03:00:00 10.2 -- -- 19 Norte 0 -- -- 75
2019-04-16 02:00:00 10.5 -- -- 15 Norte 0 -- -- 75
2019-04-16 01:00:00 11.7 -- -- 24 Norte 0 -- -- 69
2019-04-16 00:00:00 12.5 -- -- 24 Norte 0 -- -- 66
2019-04-15 23:00:00 12.4 -- -- 18 Norte 0 -- -- 70
2019-04-15 22:00:00 14 -- -- 17 Norte 0 -- -- 66
2019-04-15 21:00:00 15.4 -- -- 23 Norte 0 -- -- 61
2019-04-15 20:00:00 16.5 -- -- 35 Norte 0 -- -- 62
2019-04-15 19:00:00 16.5 -- -- 44 Norte 0 -- -- 60
2019-04-15 18:00:00 16.4 -- -- 45 Norte 0 -- -- 72
2019-04-15 17:00:00 18 -- -- 49 Norte 0 -- -- 57
2019-04-15 16:00:00 21.7 -- -- 44 Norte 0 -- -- 34
2019-04-15 15:00:00 21.4 -- -- 38 Norte 0 -- -- 37
2019-04-15 14:00:00 22 -- -- 36 Norte 0 -- -- 42
2019-04-15 13:00:00 20.1 -- -- 29 Norte 0 -- -- 59
2019-04-15 12:00:00 19 -- -- 21 Norte 0 -- -- 64
2019-04-15 11:00:00 18 -- -- 14 Norte 0 -- -- 68
2019-04-15 10:00:00 17.1 -- -- 21 Norte 0 -- -- 69
2019-04-15 09:00:00 16.4 -- -- 23 Norte 0 -- -- 71
2019-04-15 08:00:00 16.1 -- -- 24 Norte 0 -- -- 70
2019-04-15 07:00:00 16.6 -- -- 24 Norte 0 -- -- 68
2019-04-15 06:00:00 16.9 -- -- 24 Norte 0 -- -- 65
2019-04-15 05:00:00 16.8 -- -- 27 Norte 0 -- -- 66
2019-04-15 04:00:00 17 -- -- 23 Norte 0 -- -- 67
2019-04-15 03:00:00 17.1 -- -- 18 Norte 0 -- -- 67
2019-04-15 02:00:00 17.4 -- -- 17 Norte 0 -- -- 67
2019-04-15 01:00:00 18 -- -- 16 Norte 0 -- -- 65
2019-04-15 00:00:00 18.1 -- -- 15 Norte 0 -- -- 66
2019-04-14 23:00:00 18.1 -- -- 14 Norte 0 -- -- 66
2019-04-14 22:00:00 16.9 -- -- 9 Norte 0 -- -- 72
2019-04-14 21:00:00 19.8 -- -- 10 Norte 0 -- -- 62
2019-04-14 20:00:00 21 -- -- 10 Norte 0 -- -- 60
2019-04-14 19:00:00 21.6 -- -- 15 Norte 0 -- -- 56
2019-04-14 18:00:00 21.7 -- -- 17 Norte 0 -- -- 56
2019-04-14 17:00:00 21.2 -- -- 17 Norte 0 -- -- 58
2019-04-14 16:00:00 21.8 -- -- 18 Norte 0 -- -- 57
2019-04-14 15:00:00 20 -- -- 18 Norte 0 -- -- 63
2019-04-14 14:00:00 18 -- -- 16 Norte 0 -- -- 70
2019-04-14 13:00:00 16.2 -- -- 14 Norte 0 -- -- 78
2019-04-14 12:00:00 14.5 -- -- 9 Norte 0 -- -- 84
2019-04-14 11:00:00 13.5 -- -- 8 Norte 0 -- -- 90
2019-04-14 10:00:00 12.9 -- -- 12 Norte 0 -- -- 91
2019-04-14 09:00:00 13.3 -- -- 15 Norte 0 -- -- 91
2019-04-14 08:00:00 13.1 -- -- 22 Norte 0 -- -- 92
2019-04-14 07:00:00 13.2 -- -- 23 Norte 0 -- -- 91
2019-04-14 06:00:00 13.5 -- -- 22 Norte 0 -- -- 89
2019-04-14 05:00:00 13.1 -- -- 19 Norte 0 -- -- 90
2019-04-14 04:00:00 12.2 -- -- 17 Norte 0 -- -- 90
2019-04-14 03:00:00 13 -- -- 21 Norte 0 -- -- 85
2019-04-14 02:00:00 14.4 -- -- 31 Norte 0 -- -- 77
2019-04-14 01:00:00 15.6 -- -- 29 Norte 0 -- -- 70
2019-04-14 00:00:00 15.2 -- -- 25 Norte 0 -- -- 61
2019-04-13 23:00:00 14.9 -- -- 17 Norte 0 -- -- 55
2019-04-13 22:00:00 15.5 -- -- 21 Norte 0 -- -- 53
2019-04-13 21:00:00 18 -- -- 36 Norte 0 -- -- 43
2019-04-13 20:00:00 20.7 -- -- 25 Norte 0 -- -- 36
2019-04-13 19:00:00 22.2 -- -- 26 Norte 0 -- -- 32
2019-04-13 18:00:00 22.5 -- -- 23 Norte 0 -- -- 34
2019-04-13 17:00:00 22.8 -- -- 42 Norte 0 -- -- 32
2019-04-13 16:00:00 21.8 -- -- 28 Norte 0 -- -- 36
2019-04-13 15:00:00 21.1 -- -- 23 Norte 0 -- -- 38
2019-04-13 14:00:00 20.2 -- -- 20 Norte 0 -- -- 41
2019-04-13 13:00:00 18.7 -- -- 15 Norte 0 -- -- 49
2019-04-13 12:00:00 16.5 -- -- 13 Norte 0 -- -- 52
2019-04-13 11:00:00 14.4 -- -- 12 Norte 0 -- -- 58
2019-04-13 10:00:00 11.9 -- -- 9 Norte 0 -- -- 63
2019-04-13 09:00:00 9.2 -- -- 10 Norte 0 -- -- 68
2019-04-13 08:00:00 8.9 -- -- 14 Norte 0 -- -- 70
2019-04-13 07:00:00 10 -- -- 16 Norte 0 -- -- 72
2019-04-13 06:00:00 8.6 -- -- 10 Norte 0 -- -- 68
2019-04-13 05:00:00 11.9 -- -- 18 Norte 0 -- -- 56
2019-04-13 04:00:00 11.1 -- -- 19 Norte 0 -- -- 63
2019-04-13 03:00:00 11.5 -- -- 20 Norte 0 -- -- 56
2019-04-13 02:00:00 12.8 -- -- 18 Norte 0 -- -- 47
2019-04-13 01:00:00 13.5 -- -- 12 Norte 0 -- -- 41
2019-04-13 00:00:00 13.4 -- -- 13 Norte 0 -- -- 40
2019-04-12 23:00:00 12.6 -- -- 9 Norte 0 -- -- 43
2019-04-12 22:00:00 12.4 -- -- 10 Norte 0 -- -- 50
2019-04-12 21:00:00 16.1 -- -- 18 Norte 0 -- -- 39
2019-04-12 20:00:00 18.9 -- -- 21 Norte 0 -- -- 30
2019-04-12 19:00:00 19.6 -- -- 25 Norte 0 -- -- 31
2019-04-12 18:00:00 19.6 -- -- 25 Norte 0 -- -- 31
2019-04-12 17:00:00 19.3 -- -- 29 Norte 0 -- -- 28
2019-04-12 16:00:00 19 -- -- 24 Norte 0 -- -- 32
2019-04-12 15:00:00 18.2 -- -- 29 Norte 0 -- -- 32
2019-04-12 14:00:00 17.9 -- -- 27 Norte 0 -- -- 34
2019-04-12 13:00:00 17.5 -- -- 18 Norte 0 -- -- 37
2019-04-12 12:00:00 16.3 -- -- 17 Norte 0 -- -- 39
2019-04-12 11:00:00 15.2 -- -- 13 Norte 0 -- -- 41
2019-04-12 10:00:00 13.4 -- -- 8 Norte 0 -- -- 49
2019-04-12 09:00:00 10 -- -- 10 Norte 0 -- -- 57
2019-04-12 08:00:00 7.1 -- -- 12 Norte 0 -- -- 61
2019-04-12 07:00:00 6.4 -- -- 11 Norte 0 -- -- 64
2019-04-12 06:00:00 7.6 -- -- 17 Norte 0 -- -- 59
2019-04-12 05:00:00 10 -- -- 19 Norte 0 -- -- 50
2019-04-12 04:00:00 9.8 -- -- 15 Norte 0 -- -- 53
2019-04-12 03:00:00 10.3 -- -- 16 Norte 0 -- -- 53
2019-04-12 02:00:00 10.3 -- -- 11 Norte 0 -- -- 51
2019-04-12 01:00:00 10.3 -- -- 19 Norte 0 -- -- 51
2019-04-12 00:00:00 12.1 -- -- 24 Norte 0 -- -- 44
2019-04-11 23:00:00 13.4 -- -- 25 Norte 0 -- -- 41
2019-04-11 22:00:00 13.2 -- -- 21 Norte 0 -- -- 44
2019-04-11 21:00:00 13.6 -- -- 20 Norte 0 -- -- 46
2019-04-11 20:00:00 17.1 -- -- 27 Norte 0 -- -- 34
2019-04-11 19:00:00 18 -- -- 27 Norte 0 -- -- 32
2019-04-11 18:00:00 18.3 -- -- 32 Norte 0 -- -- 32
2019-04-11 17:00:00 17.9 -- -- 29 Norte 0 -- -- 33
2019-04-11 16:00:00 17.8 -- -- 25 Norte 0 -- -- 39
2019-04-11 15:00:00 16.9 -- -- 25 Norte 0 -- -- 41
2019-04-11 14:00:00 15.8 -- -- 24 Norte 0.6 -- -- 45
2019-04-11 13:00:00 -- -- -- -- -- -- -- -- --
2019-04-11 12:00:00 13.2 4 Oeste 11 Sudoeste 0 -- -- 58
2019-04-11 11:00:00 11.5 3 Sudeste 8 Sudeste 0 -- -- 66
2019-04-11 10:00:00 9.3 3 Sudoeste 7 Sur 0 -- -- 70
2019-04-11 09:00:00 7 2 Sudoeste 5 Sudoeste 0 -- -- 82
2019-04-11 08:00:00 4.7 2 Este 9 Noroeste 0 -- -- 80
2019-04-11 07:00:00 5.3 4 Norte 10 Norte 0 -- -- 78
2019-04-11 06:00:00 5.6 11 Norte 24 Noroeste 0 -- -- 81
2019-04-11 05:00:00 7 21 Norte 27 Norte 0 -- -- 77
2019-04-11 04:00:00 6.8 15 Noroeste 20 Noroeste 0 -- -- 78
2019-04-11 03:00:00 7.5 10 Noroeste 17 Noroeste 0 -- -- 73
2019-04-11 02:00:00 8.3 18 Noroeste 39 Noroeste 0 -- -- 71
2019-04-11 01:00:00 8.6 19 Noroeste 28 Noroeste 0 -- -- 72
2019-04-11 00:00:00 8.8 7 Oeste 22 Noroeste 0 -- -- 70
2019-04-10 23:00:00 10.4 10 Norte 17 Norte 0 -- -- 63
2019-04-10 22:00:00 11.8 14 Norte 26 Noroeste 0 -- -- 67
2019-04-10 21:00:00 12.9 22 Noroeste 45 Noroeste 0.6 -- -- 63
2019-04-10 20:00:00 15.2 27 Noroeste 42 Noroeste 0 -- -- 48
2019-04-10 19:00:00 16.7 29 Noroeste 45 Noroeste 0 -- -- 43
2019-04-10 18:00:00 16.2 31 Noroeste 46 Noroeste 0 -- -- 47
2019-04-10 17:00:00 16 29 Noroeste 50 Noroeste 0 -- -- 49
2019-04-10 16:00:00 16.2 33 Noroeste 47 Noroeste 0 -- -- 46
2019-04-10 15:00:00 14.3 28 Noroeste 43 Noroeste 0 -- -- 51
2019-04-10 14:00:00 13.9 27 Noroeste 46 Noroeste 0 -- -- 55
2019-04-10 13:00:00 13.3 29 Noroeste 48 Noroeste 0 -- -- 57
2019-04-10 12:00:00 12.9 32 Noroeste 46 Noroeste 0 -- -- 63
2019-04-10 11:00:00 10.6 22 Noroeste 32 Noroeste 0 -- -- 77
2019-04-10 10:00:00 8.4 20 Noroeste 27 Noroeste 0 -- -- 87
2019-04-10 09:00:00 7.1 19 Noroeste 27 Noroeste 0 -- -- 91
2019-04-10 08:00:00 6.5 18 Noroeste 28 Norte 0 -- -- 93
2019-04-10 07:00:00 6.2 21 Noroeste 28 Noroeste 0 -- -- 92
2019-04-10 06:00:00 6 7 Noroeste 18 Noroeste 0 -- -- 90
2019-04-10 05:00:00 6.6 15 Noroeste 24 Noroeste 0 -- -- 90
2019-04-10 04:00:00 7 19 Noroeste 27 Noroeste 0 -- -- 89
2019-04-10 03:00:00 6.9 16 Noroeste 25 Noroeste 0 -- -- 87
2019-04-10 02:00:00 7.4 16 Noroeste 25 Noroeste 0 -- -- 85
2019-04-10 01:00:00 8 16 Norte 37 Oeste 0 -- -- 81
2019-04-10 00:00:00 9.6 25 Noroeste 39 Noroeste 0 -- -- 71
2019-04-09 23:00:00 10 25 Noroeste 41 Noroeste 0 -- -- 71
2019-04-09 22:00:00 10.6 26 Oeste 37 Oeste 0 -- -- 70
2019-04-09 21:00:00 12.4 27 Oeste 48 Oeste 0 -- -- 63
2019-04-09 20:00:00 13.5 30 Noroeste 45 Noroeste 0 -- -- 52
2019-04-09 19:00:00 14.5 35 Noroeste 51 Oeste 0 -- -- 53
2019-04-09 18:00:00 16.2 32 Oeste 45 Noroeste 0 -- -- 46
2019-04-09 17:00:00 15 24 Oeste 48 Oeste 0 -- -- 63
2019-04-09 16:00:00 14.1 28 Oeste 46 Noroeste 0.4 -- -- 60
2019-04-09 15:00:00 13.4 30 Oeste 45 Noroeste 0 -- -- 71
2019-04-09 14:00:00 12.7 31 Oeste 44 Oeste 0.4 -- -- 72
2019-04-09 13:00:00 10.7 28 Oeste 42 Oeste 0 -- -- 80
2019-04-09 12:00:00 10.9 30 Oeste 43 Oeste 0 -- -- 75
2019-04-09 11:00:00 10.1 23 Oeste 31 Oeste 0 -- -- 89
2019-04-09 10:00:00 8.7 14 Sudoeste 20 Sudoeste 0.2 -- -- 95
2019-04-09 09:00:00 7.6 9 Oeste 16 Oeste 0.6 -- -- 95
2019-04-09 08:00:00 7.3 4 Oeste 19 Oeste 0 -- -- 95
2019-04-09 07:00:00 6.5 6 Oeste 9 Sudoeste 0 -- -- 96
2019-04-09 06:00:00 6.1 2 Sudoeste 8 Oeste 0 -- -- 94
2019-04-09 05:00:00 6.5 5 Oeste 12 Sudoeste 0 -- -- 92
2019-04-09 04:00:00 6.8 6 Sudoeste 17 Oeste 0 -- -- 90
2019-04-09 03:00:00 7.6 15 Noroeste 22 Oeste 0 -- -- 85
2019-04-09 02:00:00 7.7 6 Oeste 31 Oeste 0 -- -- 84
2019-04-09 01:00:00 8.4 19 Noroeste 27 Oeste 0 -- -- 80
2019-04-09 00:00:00 9 23 Oeste 38 Oeste 0 -- -- 77
2019-04-08 23:00:00 9.4 18 Noroeste 23 Oeste 0 -- -- 82
2019-04-08 22:00:00 9.6 16 Noroeste 37 Noroeste 0.6 -- -- 89
2019-04-08 21:00:00 9.6 33 Noroeste 50 Noroeste 1 -- -- 85
2019-04-08 20:00:00 11.1 17 Norte 52 Oeste 0 -- -- 82
2019-04-08 19:00:00 15 17 Noroeste 34 Oeste 0 -- -- 46
2019-04-08 18:00:00 16.1 23 Oeste 37 Oeste 0 -- -- 43
2019-04-08 17:00:00 16.9 21 Oeste 32 Oeste 0 -- -- 44
2019-04-08 16:00:00 15.4 20 Oeste 34 Oeste 0 -- -- 46
2019-04-08 15:00:00 16.2 27 Oeste 44 Oeste 0 -- -- 50
2019-04-08 14:00:00 14.5 22 Noroeste 43 Oeste 0.2 -- -- 62
2019-04-08 13:00:00 14.7 30 Oeste 43 Oeste 0 -- -- 63
2019-04-08 12:00:00 12.9 21 Oeste 32 Oeste 0 -- -- 72
2019-04-08 11:00:00 12.4 15 Oeste 21 Oeste 0 -- -- 87
2019-04-08 10:00:00 11.4 17 Oeste 22 Oeste 0 -- -- 95
2019-04-08 09:00:00 10.5 6 Sudoeste 15 Oeste 0 -- -- 97
2019-04-08 08:00:00 10.2 10 Oeste 19 Noroeste 3 -- -- 97
2019-04-08 07:00:00 10.4 13 Sudoeste 19 Sudoeste 0.8 -- -- 96
2019-04-08 06:00:00 10.6 14 Sudoeste 22 Sudoeste 0 -- -- 95
2019-04-08 05:00:00 10.8 15 Sudoeste 21 Sudoeste 0.4 -- -- 95
2019-04-08 04:00:00 11 15 Oeste 26 Oeste 0 -- -- 95
2019-04-08 03:00:00 11.2 13 Sudoeste 22 Oeste 0.2 -- -- 96
2019-04-08 02:00:00 11.2 14 Oeste 30 Sudoeste 0.6 -- -- 96
2019-04-08 01:00:00 11.2 6 Oeste 11 Sudoeste 0.4 -- -- 97
2019-04-08 00:00:00 11.2 8 Oeste 14 Oeste 0 -- -- 97
2019-04-07 23:00:00 11.2 11 Sudoeste 15 Sudoeste 0 -- -- 97
2019-04-07 22:00:00 11.1 6 Sudoeste 12 Sudoeste 0 -- -- 96
2019-04-07 21:00:00 11 3 Oeste 12 Sudoeste 1.4 -- -- 95
2019-04-07 20:00:00 11.1 7 Sudoeste 15 Sudoeste 0 -- -- 94
2019-04-07 19:00:00 11 14 Sudoeste 21 Sudoeste 0 -- -- 92
2019-04-07 18:00:00 11.1 10 Sudoeste 26 Sudoeste 0 -- -- 86
2019-04-07 17:00:00 11.5 18 Sudoeste 26 Sudoeste 0 -- -- 83
2019-04-07 16:00:00 11.4 18 Sudoeste 31 Oeste 0 -- -- 82
2019-04-07 15:00:00 12.5 23 Oeste 35 Oeste 0 -- -- 69
2019-04-07 14:00:00 -- -- -- -- -- -- -- -- --
2019-04-07 13:00:00 -- -- -- -- -- -- -- -- --
2019-04-07 12:00:00 -- -- -- -- -- -- -- -- --
2019-04-07 11:00:00 -- -- -- -- -- -- -- -- --
2019-04-07 10:00:00 -- -- -- -- -- -- -- -- --
2019-04-07 09:00:00 -- -- -- -- -- -- -- -- --
2019-04-07 08:00:00 -- -- -- -- -- -- -- -- --
2019-04-07 07:00:00 -- -- -- -- -- -- -- -- --
2019-04-07 06:00:00 -- -- -- -- -- -- -- -- --
2019-04-07 05:00:00 -- -- -- -- -- -- -- -- --
2019-04-07 04:00:00 -- -- -- -- -- -- -- -- --
2019-04-07 03:00:00 -- -- -- -- -- -- -- -- --
2019-04-07 02:00:00 7.6 17 Oeste 26 Oeste 0 -- -- 85
2019-04-07 01:00:00 7.4 9 Noroeste 15 Oeste 0 -- -- 82
2019-04-07 00:00:00 7.6 8 Oeste 23 Oeste 0 -- -- 79
2019-04-06 23:00:00 7 11 Oeste 29 Oeste 0 -- -- 82
2019-04-06 22:00:00 7.9 22 Noroeste 50 Oeste 0 -- -- 75
2019-04-06 21:00:00 8.8 23 Oeste 41 Oeste 0 -- -- 73
2019-04-06 20:00:00 9.6 22 Oeste 36 Noroeste 0 -- -- 68
2019-04-06 19:00:00 8.7 21 Noroeste 33 Oeste 0 -- -- 74
2019-04-06 18:00:00 9.1 23 Noroeste 51 Noroeste 0.2 -- -- 74
2019-04-06 17:00:00 8.6 35 Noroeste 51 Noroeste 0 -- -- 74
2019-04-06 16:00:00 8.6 26 Oeste 44 Oeste 0.2 -- -- 73
2019-04-06 15:00:00 7.6 27 Noroeste 46 Oeste 0.4 -- -- 87
2019-04-06 14:00:00 -- -- -- -- -- -- -- -- --
2019-04-06 13:00:00 -- -- -- -- -- -- -- -- --
2019-04-06 12:00:00 -- -- -- -- -- -- -- -- --
2019-04-06 11:00:00 -- -- -- -- -- -- -- -- --
2019-04-06 10:00:00 -- -- -- -- -- -- -- -- --
2019-04-06 09:00:00 -- -- -- -- -- -- -- -- --
2019-04-06 08:00:00 -- -- -- -- -- -- -- -- --
2019-04-06 07:00:00 -- -- -- -- -- -- -- -- --
2019-04-06 06:00:00 -- -- -- -- -- -- -- -- --
2019-04-06 05:00:00 -- -- -- -- -- -- -- -- --
2019-04-06 04:00:00 -- -- -- -- -- -- -- -- --
2019-04-06 03:00:00 -- -- -- -- -- -- -- -- --
2019-04-06 02:00:00 6 19 Oeste 28 Oeste 0 -- -- 87
2019-04-06 01:00:00 6.4 15 Oeste 25 Oeste 0 -- -- 85
2019-04-06 00:00:00 5.8 13 Oeste 28 Oeste 0 -- -- 84
2019-04-05 23:00:00 6.4 17 Oeste 26 Oeste 0 -- -- 87
2019-04-05 22:00:00 7 17 Oeste 27 Sudoeste 0 -- -- 85
2019-04-05 21:00:00 8.1 22 Oeste 40 Oeste 0 -- -- 72
2019-04-05 20:00:00 8.7 18 Noroeste 49 Oeste 0 -- -- 71
2019-04-05 19:00:00 9.9 29 Sudoeste 50 Oeste 0 -- -- 61
2019-04-05 18:00:00 10.7 23 Oeste 52 Oeste 0 -- -- 54
2019-04-05 17:00:00 11.5 33 Oeste 46 Oeste 0 -- -- 48
2019-04-05 16:00:00 10.3 17 Sudoeste 40 Oeste 0 -- -- 72
2019-04-05 15:00:00 7.4 17 Oeste 48 Oeste 0 -- -- 87
2019-04-05 14:00:00 -- -- -- -- -- -- -- -- --
2019-04-05 13:00:00 6.9 23 Noroeste 35 Oeste 0 -- -- 84
2019-04-05 12:00:00 5.1 15 Norte 47 Noroeste 0.4 -- -- 91
2019-04-05 11:00:00 6.2 26 Oeste 49 Oeste 0.2 -- -- 85
2019-04-05 10:00:00 7.9 14 Sudoeste 21 Sudoeste 0 -- -- 92
2019-04-05 09:00:00 7.5 14 Sudoeste 19 Sudoeste 0.2 -- -- 94
2019-04-05 08:00:00 7 8 Sur 13 Sudeste 0.8 -- -- 95
2019-04-05 07:00:00 7 5 Sur 9 Sur 0 -- -- 93
2019-04-05 06:00:00 6.6 6 Sur 23 Sur 0.6 -- -- 93
2019-04-05 05:00:00 7 19 Sudoeste 27 Sur 2.2 -- -- 93
2019-04-05 04:00:00 7.1 11 Sudoeste 21 Sudoeste 0.4 -- -- 93
2019-04-05 03:00:00 7.1 12 Sudoeste 19 Oeste 0.4 -- -- 90
2019-04-05 02:00:00 7.3 6 Sudoeste 17 Noroeste 0.6 -- -- 89
2019-04-05 01:00:00 7.2 15 Noroeste 35 Noroeste 0.4 -- -- 87
2019-04-05 00:00:00 8.8 24 Noroeste 39 Noroeste 0 -- -- 68
2019-04-04 23:00:00 11.5 18 Oeste 27 Oeste 0 -- -- 47
2019-04-04 22:00:00 12.1 18 Oeste 32 Oeste 0 -- -- 43
2019-04-04 21:00:00 12.9 24 Oeste 38 Oeste 0 -- -- 32
2019-04-04 20:00:00 14.6 24 Oeste 37 Sudoeste 0 -- -- 28
2019-04-04 19:00:00 16.3 18 Sudoeste 30 Oeste 0 -- -- 27
2019-04-04 18:00:00 16.4 15 Sudoeste 30 Oeste 0 -- -- 28
2019-04-04 17:00:00 16.2 10 Sudoeste 24 Sur 0 -- -- 28
2019-04-04 16:00:00 15.5 9 Sudoeste 26 Sudoeste 0 -- -- 29
2019-04-04 15:00:00 14.6 9 Oeste 27 Sudoeste 0 -- -- 33
2019-04-04 14:00:00 14 8 Sur 19 Sudoeste 0 -- -- 34
2019-04-04 13:00:00 13.1 12 Sudeste 22 Sur 0 -- -- 35
2019-04-04 12:00:00 12 12 Sudeste 19 Sudeste 0 -- -- 39
2019-04-04 11:00:00 10.5 12 Sudeste 19 Sudeste 0 -- -- 41
2019-04-04 10:00:00 7.7 7 Noroeste 21 Noroeste 0 -- -- 51
2019-04-04 09:00:00 4.5 15 Noroeste 24 Noroeste 0 -- -- 57
2019-04-04 08:00:00 3.5 13 Norte 24 Noroeste 0 -- -- 59
2019-04-04 07:00:00 5.1 18 Noroeste 30 Noroeste 0 -- -- 53
2019-04-04 06:00:00 5.7 24 Noroeste 33 Norte 0 -- -- 50
2019-04-04 05:00:00 6.7 26 Norte 42 Norte 0 -- -- 48
2019-04-04 04:00:00 7 31 Noroeste 42 Noroeste 0 -- -- 47
2019-04-04 03:00:00 7.1 31 Noroeste 42 Noroeste 0 -- -- 48
2019-04-04 02:00:00 7.7 30 Noroeste 41 Noroeste 0 -- -- 48
2019-04-04 01:00:00 8.4 19 Noroeste 36 Noroeste 0 -- -- 44
2019-04-04 00:00:00 8.8 15 Noroeste 28 Noroeste 0 -- -- 42
2019-04-03 23:00:00 10.1 22 Noroeste 37 Noroeste 0 -- -- 39
2019-04-03 22:00:00 11.5 30 Noroeste 41 Noroeste 0 -- -- 37
2019-04-03 21:00:00 11.7 21 Noroeste 44 Noroeste 0 -- -- 38
2019-04-03 20:00:00 14 31 Noroeste 51 Noroeste 0 -- -- 32
2019-04-03 19:00:00 15.7 28 Noroeste 48 Noroeste 0 -- -- 31
2019-04-03 18:00:00 16.9 31 Oeste 48 Noroeste 0 -- -- 30
2019-04-03 17:00:00 17.1 28 Noroeste 44 Oeste 0 -- -- 34
2019-04-03 16:00:00 16.7 31 Noroeste 44 Oeste 0 -- -- 38
2019-04-03 15:00:00 16.5 26 Noroeste 39 Oeste 0 -- -- 42
2019-04-03 14:00:00 15.6 22 Oeste 34 Noroeste 0 -- -- 46
2019-04-03 13:00:00 14.1 17 Oeste 25 Oeste 0 -- -- 53
2019-04-03 12:00:00 12.3 7 Sudoeste 17 Oeste 0 -- -- 67
2019-04-03 11:00:00 9.7 11 Sudoeste 17 Oeste 0 -- -- 80
2019-04-03 10:00:00 9.1 14 Noroeste 20 Noroeste 0 -- -- 72
2019-04-03 09:00:00 7.2 16 Noroeste 21 Norte 0 -- -- 84
2019-04-03 08:00:00 6.7 12 Noroeste 19 Norte 0 -- -- 85
2019-04-03 07:00:00 6.8 12 Noroeste 17 Noroeste 0 -- -- 86
2019-04-03 06:00:00 7.5 13 Noroeste 20 Norte 0 -- -- 84
2019-04-03 05:00:00 9.4 17 Noroeste 22 Noroeste 0 -- -- 76
2019-04-03 04:00:00 9 12 Noroeste 24 Noroeste 0 -- -- 76
2019-04-03 03:00:00 11.5 19 Noroeste 23 Noroeste 0 -- -- 67
2019-04-03 02:00:00 12 15 Noroeste 29 Noroeste 0 -- -- 65
2019-04-03 01:00:00 13.2 21 Noroeste 30 Noroeste 0 -- -- 62
2019-04-03 00:00:00 13.9 17 Noroeste 25 Noroeste 0 -- -- 61
2019-04-02 23:00:00 13 13 Noroeste 18 Noroeste 0 -- -- 64
2019-04-02 22:00:00 14.8 10 Oeste 14 Sudoeste 0 -- -- 57
2019-04-02 21:00:00 15.9 9 Sudoeste 24 Sudoeste 0 -- -- 56
2019-04-02 20:00:00 18.1 17 Oeste 33 Sudoeste 0 -- -- 48
2019-04-02 19:00:00 18.7 13 Oeste 23 Sudoeste 0 -- -- 45
2019-04-02 18:00:00 19.7 14 Sudoeste 29 Oeste 0 -- -- 43
2019-04-02 17:00:00 19.8 18 Oeste 30 Sudoeste 0 -- -- 45
2019-04-02 16:00:00 19.3 14 Sudoeste 24 Sudoeste 0 -- -- 51
2019-04-02 15:00:00 17.6 11 Sudoeste 20 Sudoeste 0 -- -- 57
2019-04-02 14:00:00 16 7 Sur 16 Sudoeste 0 -- -- 68
2019-04-02 13:00:00 13.9 10 Sudoeste 15 Sudoeste 0 -- -- 77
2019-04-02 12:00:00 11.1 7 Sur 14 Sur 0 -- -- 90
2019-04-02 11:00:00 9.9 3 Sudeste 10 Sudeste 0 -- -- 96
2019-04-02 10:00:00 9.5 5 Sudeste 10 Sudeste 0 -- -- 96
2019-04-02 09:00:00 8.8 4 Sudeste 11 Este 0 -- -- 92
2019-04-02 08:00:00 8.4 8 Este 10 Este 0 -- -- 92
2019-04-02 07:00:00 7.8 4 Este 6 Sudeste 0 -- -- 95
2019-04-02 06:00:00 7.3 4 Nordeste 6 Este 0 -- -- 90
2019-04-02 05:00:00 8 8 Nordeste 10 Nordeste 0 -- -- 90
2019-04-02 04:00:00 8.5 3 Nordeste 9 Sudoeste 0 -- -- 90
2019-04-02 03:00:00 9.2 6 Oeste 9 Sudoeste 0 -- -- 91
2019-04-02 02:00:00 9.9 2 Sudoeste 4 Norte 0 -- -- 87
2019-04-02 01:00:00 10.4 0 Calma 5 Oeste 0 -- -- 81
2019-04-02 00:00:00 11.2 4 Noroeste 10 Noroeste 0 -- -- 80
2019-04-01 23:00:00 11.4 5 Noroeste 8 Noroeste 0 -- -- 81
2019-04-01 22:00:00 11.8 6 Noroeste 22 Sudoeste 0 -- -- 81
2019-04-01 21:00:00 13.4 8 Sudoeste 12 Sur 0 -- -- 76
2019-04-01 20:00:00 14.6 9 Oeste 14 Oeste 0 -- -- 71
2019-04-01 19:00:00 14.3 6 Sur 37 Sur 0 -- -- 68
2019-04-01 18:00:00 16 27 Sur 41 Sur 0 -- -- 65
2019-04-01 17:00:00 18.1 8 Sudeste 16 Este 0 -- -- 50
2019-04-01 16:00:00 17.5 5 Nordeste 16 Norte 0 -- -- 52
2019-04-01 15:00:00 16.4 5 Nordeste 19 Este 0 -- -- 63
2019-04-01 14:00:00 13.5 12 Nordeste 21 Nordeste 0.6 -- -- 81
2019-04-01 13:00:00 11.4 10 Nordeste 15 Sudoeste 2 -- -- 89
2019-04-01 12:00:00 12.8 4 Sudeste 16 Este 0 -- -- 70
2019-04-01 11:00:00 12.3 10 Este 19 Este 0 -- -- 74
2019-04-01 10:00:00 11.6 13 Este 22 Este 0 -- -- 74
2019-04-01 09:00:00 11.1 13 Este 21 Este 0 -- -- 77
2019-04-01 08:00:00 11.2 15 Este 21 Este 0 -- -- 75
2019-04-01 07:00:00 11.2 11 Este 22 Este 0 -- -- 76
2019-04-01 06:00:00 11.2 13 Este 20 Este 0 -- -- 76
2019-04-01 05:00:00 11.4 14 Este 20 Este 0 -- -- 75
2019-04-01 04:00:00 12 12 Este 24 Este 0 -- -- 70
2019-04-01 03:00:00 12.2 17 Este 25 Nordeste 0 -- -- 68
2019-04-01 02:00:00 12 18 Este 27 Este 0 -- -- 69
2019-04-01 01:00:00 12.4 19 Este 27 Este 0 -- -- 68
2019-04-01 00:00:00 12.6 17 Este 24 Este 0 -- -- 70
2019-03-31 23:00:00 11.9 17 Este 22 Nordeste 0 -- -- 76
2019-03-31 22:00:00 12.4 16 Este 26 Este 0 -- -- 72
2019-03-31 21:00:00 13.2 19 Este 35 Este 0 -- -- 72
2019-03-31 20:00:00 15.9 16 Nordeste 29 Este 0 -- -- 61
2019-03-31 19:00:00 18.3 11 Oeste 21 Oeste 0 -- -- 47
2019-03-31 18:00:00 17.8 3 Noroeste 17 Noroeste 0 -- -- 46
2019-03-31 17:00:00 15.7 15 Norte 21 Noroeste 0 -- -- 60
2019-03-31 16:00:00 15.8 13 Norte 30 Nordeste 0.4 -- -- 63
2019-03-31 15:00:00 14.5 26 Nordeste 36 Nordeste 0 -- -- 69
2019-03-31 14:00:00 19.5 11 Sur 22 Sudoeste 0 -- -- 49
2019-03-31 13:00:00 17.5 4 Sudoeste 16 Sur 0 -- -- 55
2019-03-31 12:00:00 16.9 4 Sur 15 Sur 0 -- -- 56
2019-03-31 11:00:00 15.1 6 Sudeste 16 Este 0 -- -- 60
2019-03-31 10:00:00 14.3 11 Sudeste 16 Sudeste 0 -- -- 58
2019-03-31 09:00:00 12.7 9 Este 18 Nordeste 0 -- -- 67
2019-03-31 08:00:00 12.3 13 Nordeste 19 Este 0 -- -- 65
2019-03-31 07:00:00 12.3 10 Este 16 Este 0 -- -- 66
2019-03-31 06:00:00 12 4 Oeste 9 Sudeste 0 -- -- 67
2019-03-31 05:00:00 12.4 10 Noroeste 13 Noroeste 0 -- -- 66
2019-03-31 03:00:00 13.6 14 Este 25 Este 0 -- -- 60
2019-03-31 01:00:00 14.1 11 Este 17 Sudeste 0 -- -- 60
2019-03-31 00:00:00 14.2 7 Sudeste 14 Sudeste 0 -- -- 59
2019-03-30 23:00:00 14.4 12 Sudeste 30 Este 0 -- -- 55
2019-03-30 22:00:00 15 16 Este 32 Sudeste 0 -- -- 51
2019-03-30 21:00:00 15.7 12 Nordeste 15 Nordeste 0 -- -- 38
2019-03-30 20:00:00 15.7 10 Nordeste 12 Nordeste 0 -- -- 42
2019-03-30 19:00:00 19.9 9 Nordeste 21 Este 0 -- -- 33
2019-03-30 18:00:00 20.6 7 Este 25 Este 0 -- -- 30
2019-03-30 17:00:00 20.7 15 Este 31 Este 0 -- -- 29
2019-03-30 16:00:00 20.8 17 Este 31 Sudeste 0 -- -- 28
2019-03-30 15:00:00 20.6 13 Este 31 Este 0 -- -- 28
2019-03-30 14:00:00 19.5 18 Este 29 Este 0 -- -- 31
2019-03-30 13:00:00 18.1 13 Este 25 Este 0 -- -- 37
2019-03-30 12:00:00 16.9 13 Este 26 Este 0 -- -- 39
2019-03-30 11:00:00 13.9 18 Este 24 Este 0 -- -- 48
2019-03-30 10:00:00 12.5 15 Este 22 Este 0 -- -- 49
2019-03-30 09:00:00 11.7 12 Este 21 Nordeste 0 -- -- 50
2019-03-30 08:00:00 11.3 14 Nordeste 25 Nordeste 0 -- -- 47
2019-03-30 07:00:00 10 12 Este 22 Este 0 -- -- 43
2019-03-30 06:00:00 9.7 15 Este 19 Este 0 -- -- 43
2019-03-30 05:00:00 10.5 12 Este 18 Este 0 -- -- 36
2019-03-30 04:00:00 10.8 13 Este 20 Este 0 -- -- 34
2019-03-30 03:00:00 12.1 14 Este 24 Nordeste 0 -- -- 32
2019-03-30 02:00:00 11.8 16 Nordeste 21 Nordeste 0 -- -- 32
2019-03-30 01:00:00 11.3 9 Sudeste 16 Sur 0 -- -- 36
2019-03-30 00:00:00 12.2 14 Nordeste 17 Nordeste 0 -- -- 29
2019-03-29 23:00:00 12.7 13 Nordeste 15 Nordeste 0 -- -- 29
2019-03-29 22:00:00 12.4 12 Nordeste 14 Nordeste 0 -- -- 31
2019-03-29 21:00:00 12.2 11 Nordeste 13 Nordeste 0 -- -- 31
2019-03-29 20:00:00 13.2 10 Nordeste 12 Nordeste 0 -- -- 33
2019-03-29 19:00:00 18.3 6 Este 15 Sudeste 0 -- -- 19
2019-03-29 18:00:00 19 11 Sudeste 17 Este 0 -- -- 19
2019-03-29 17:00:00 19.3 5 Este 25 Sudeste 0 -- -- 21
2019-03-29 16:00:00 19.6 11 Sur 24 Sur 0 -- -- 20
2019-03-29 15:00:00 18.6 9 Este 28 Sudeste 0 -- -- 22
2019-03-29 14:00:00 18.2 15 Este 32 Sudeste 0 -- -- 24
2019-03-29 13:00:00 17.2 17 Sudeste 31 Este 0 -- -- 25
2019-03-29 12:00:00 16 18 Sudeste 31 Este 0 -- -- 25
2019-03-29 11:00:00 14.3 16 Este 28 Este 0 -- -- 29
2019-03-29 10:00:00 13.7 21 Este 32 Este 0 -- -- 31
2019-03-29 09:00:00 12.4 19 Este 27 Este 0 -- -- 33
2019-03-29 08:00:00 11.2 18 Este 25 Este 0 -- -- 32
2019-03-29 07:00:00 10.3 15 Este 24 Este 0 -- -- 34
2019-03-29 06:00:00 10.6 17 Este 28 Este 0 -- -- 33
2019-03-29 05:00:00 11.2 21 Este 27 Este 0 -- -- 33
2019-03-29 04:00:00 11.2 18 Este 30 Este 0 -- -- 34
2019-03-29 03:00:00 12.2 24 Este 34 Este 0 -- -- 32
2019-03-29 02:00:00 13.3 22 Este 32 Este 0 -- -- 29
2019-03-29 01:00:00 14.4 19 Este 27 Este 0 -- -- 26
2019-03-29 00:00:00 15 17 Este 24 Este 0 -- -- 25
2019-03-28 23:00:00 14.9 18 Este 27 Este 0 -- -- 26
2019-03-28 22:00:00 16.2 19 Este 26 Nordeste 0 -- -- 24
2019-03-28 21:00:00 13.4 13 Nordeste 16 Nordeste 0 -- -- 32
2019-03-28 20:00:00 14.6 12 Nordeste 18 Sudeste 0 -- -- 32
2019-03-28 19:00:00 19.1 15 Sudeste 30 Sudeste 0 -- -- 21
2019-03-28 18:00:00 20.4 18 Sudeste 35 Sudeste 0 -- -- 19
2019-03-28 17:00:00 20.6 21 Sudeste 35 Sudeste 0 -- -- 17
2019-03-28 16:00:00 20.5 25 Sudeste 39 Sudeste 0 -- -- 19
2019-03-28 15:00:00 20.3 27 Este 46 Este 0 -- -- 18
2019-03-28 14:00:00 19.6 28 Este 43 Este 0 -- -- 17
2019-03-28 13:00:00 18.4 23 Este 37 Sudeste 0 -- -- 22
2019-03-28 12:00:00 17 25 Este 38 Sudeste 0 -- -- 23
2019-03-28 11:00:00 15.9 23 Este 35 Este 0 -- -- 25
2019-03-28 10:00:00 14.6 23 Este 35 Este 0 -- -- 30
2019-03-28 09:00:00 12.7 18 Este 26 Este 0 -- -- 36
2019-03-28 08:00:00 11.1 17 Este 24 Este 0 -- -- 35
2019-03-28 07:00:00 9.3 20 Este 24 Este 0 -- -- 38
2019-03-28 06:00:00 9.2 17 Este 22 Este 0 -- -- 37
2019-03-28 05:00:00 9.6 13 Este 24 Este 0 -- -- 36
2019-03-28 04:00:00 11.5 17 Este 25 Este 0 -- -- 32
2019-03-28 03:00:00 12.7 17 Este 23 Este 0 -- -- 29
2019-03-28 02:00:00 14.1 17 Este 22 Este 0 -- -- 25
2019-03-28 01:00:00 14.1 15 Nordeste 22 Este 0 -- -- 25
2019-03-28 00:00:00 14.4 13 Este 21 Nordeste 0 -- -- 26
2019-03-27 23:00:00 14.5 14 Nordeste 21 Este 0 -- -- 27
2019-03-27 22:00:00 15.1 14 Este 18 Este 0 -- -- 27
2019-03-27 21:00:00 15.7 12 Este 18 Este 0 -- -- 27
2019-03-27 20:00:00 16.5 10 Nordeste 18 Este 0 -- -- 30
2019-03-27 19:00:00 19 12 Este 23 Sudeste 0 -- -- 25
2019-03-27 18:00:00 20.1 14 Este 28 Sudeste 0 -- -- 25
2019-03-27 17:00:00 20.2 20 Este 33 Sudeste 0 -- -- 21
2019-03-27 16:00:00 19.8 17 Este 34 Este 0 -- -- 23
2019-03-27 15:00:00 19.3 22 Este 36 Este 0 -- -- 25
2019-03-27 14:00:00 18.2 24 Este 37 Este 0 -- -- 25
2019-03-27 13:00:00 16.8 22 Este 38 Este 0 -- -- 30
2019-03-27 12:00:00 16.1 23 Este 36 Este 0 -- -- 28
2019-03-27 11:00:00 15.2 22 Este 36 Este 0 -- -- 29
2019-03-27 10:00:00 13.9 23 Este 36 Sudeste 0 -- -- 34
2019-03-27 09:00:00 12 22 Sudeste 33 Este 0 -- -- 39
2019-03-27 08:00:00 9.6 10 Este 32 Este 0 -- -- 45
2019-03-27 07:00:00 9.7 23 Este 31 Este 0 -- -- 44
2019-03-27 06:00:00 9.8 21 Este 41 Este 0 -- -- 45
2019-03-27 05:00:00 12.4 28 Este 40 Nordeste 0 -- -- 36
2019-03-27 04:00:00 12.7 24 Este 36 Este 0 -- -- 39
2019-03-27 03:00:00 13.8 23 Este 40 Este 0 -- -- 39
2019-03-27 02:00:00 14.7 28 Este 43 Este 0 -- -- 37
2019-03-27 01:00:00 14.8 27 Este 36 Este 0 -- -- 39
2019-03-27 00:00:00 15.1 19 Este 40 Este 0 -- -- 39
2019-03-26 23:00:00 16.7 28 Este 42 Este 0 -- -- 35
2019-03-26 22:00:00 17.5 24 Este 37 Este 0 -- -- 32
2019-03-26 21:00:00 17.9 25 Este 34 Este 0 -- -- 29
2019-03-26 20:00:00 19 18 Este 33 Este 0 -- -- 27
2019-03-26 19:00:00 21.6 24 Este 44 Este 0 -- -- 23
2019-03-26 18:00:00 22.8 30 Este 43 Este 0 -- -- 22
2019-03-26 17:00:00 23.1 33 Este 54 Este 0 -- -- 21
2019-03-26 16:00:00 23 31 Este 52 Este 0 -- -- 23
2019-03-26 15:00:00 23.1 32 Este 48 Este 0 -- -- 24
2019-03-26 14:00:00 22.1 34 Este 54 Este 0 -- -- 24
2019-03-26 13:00:00 20.9 37 Este 55 Este 0 -- -- 26
2019-03-26 12:00:00 19.6 34 Este 49 Este 0 -- -- 28
2019-03-26 11:00:00 18.3 35 Este 53 Este 0 -- -- 28
2019-03-26 10:00:00 17.1 13 Este 22 Este 0 -- -- 32
2019-03-26 09:00:00 13.8 12 Este 22 Este 0 -- -- 32
2019-03-26 08:00:00 11.7 10 Este 18 Este 0 -- -- 33
2019-03-26 07:00:00 11.5 7 Sudeste 12 Este 0 -- -- 34
2019-03-26 06:00:00 12.9 12 Este 21 Este 0 -- -- 30
2019-03-26 05:00:00 12.7 17 Este 26 Este 0 -- -- 32
2019-03-26 04:00:00 13.7 22 Este 27 Este 0 -- -- 31
2019-03-26 03:00:00 15.9 22 Este 33 Este 0 -- -- 26
2019-03-26 02:00:00 15.4 19 Nordeste 28 Nordeste 0 -- -- 29
2019-03-26 01:00:00 13.2 10 Este 12 Este 0 -- -- 36
2019-03-26 00:00:00 14.2 10 Este 20 Nordeste 0 -- -- 34
2019-03-25 23:00:00 16.6 17 Nordeste 21 Nordeste 0 -- -- 28
2019-03-25 22:00:00 16.8 15 Nordeste 18 Nordeste 0 -- -- 28
2019-03-25 21:00:00 15.3 14 Nordeste 15 Nordeste 0 -- -- 32
2019-03-25 20:00:00 17.9 13 Nordeste 14 Nordeste 0 -- -- 28
2019-03-25 19:00:00 21.2 13 Este 29 Este 0 -- -- 25
2019-03-25 18:00:00 22.6 18 Este 32 Este 0 -- -- 22
2019-03-25 17:00:00 23.1 23 Sudeste 38 Este 0 -- -- 22
2019-03-25 16:00:00 23.2 22 Este 38 Sudeste 0 -- -- 22
2019-03-25 15:00:00 22.9 24 Este 40 Sudeste 0 -- -- 23
2019-03-25 14:00:00 22.4 25 Este 43 Sudeste 0 -- -- 24
2019-03-25 13:00:00 21.4 25 Este 41 Sudeste 0 -- -- 25
2019-03-25 12:00:00 20.6 28 Sudeste 40 Sudeste 0 -- -- 26
2019-03-25 11:00:00 19.6 24 Este 35 Este 0 -- -- 26
2019-03-25 10:00:00 16.7 12 Este 17 Este 0 -- -- 40
2019-03-25 09:00:00 14.1 8 Este 14 Este 0 -- -- 47
2019-03-25 08:00:00 12 6 Este 18 Este 0 -- -- 51
2019-03-25 07:00:00 14 14 Nordeste 24 Nordeste 0 -- -- 43
2019-03-25 06:00:00 12.6 16 Este 26 Este 0 -- -- 51
2019-03-25 05:00:00 12.4 15 Este 22 Nordeste 0 -- -- 50
2019-03-25 04:00:00 13.5 15 Nordeste 22 Este 0 -- -- 46
2019-03-25 03:00:00 10.8 11 Nordeste 17 Este 0 -- -- 56
2019-03-25 02:00:00 11.7 6 Nordeste 12 Nordeste 0 -- -- 55
2019-03-25 01:00:00 11.7 10 Nordeste 10 Nordeste 0 -- -- 57
2019-03-25 00:00:00 11.9 7 Nordeste 17 Nordeste 0 -- -- 58
2019-03-24 23:00:00 12.4 5 Nordeste 9 Este 0 -- -- 56
2019-03-24 22:00:00 13.9 6 Este 12 Este 0 -- -- 51
2019-03-24 21:00:00 14.4 9 Este 12 Este 0 -- -- 50
2019-03-24 20:00:00 17.9 10 Este 15 Sudeste 0 -- -- 39
2019-03-24 19:00:00 20.1 10 Sudeste 24 Sudeste 0 -- -- 33
2019-03-24 18:00:00 21 17 Sudeste 30 Sudeste 0 -- -- 30
2019-03-24 17:00:00 21.3 18 Este 32 Sudeste 0 -- -- 29
2019-03-24 16:00:00 21.5 14 Este 35 Este 0 -- -- 31
2019-03-24 15:00:00 21.1 16 Este 36 Sudeste 0 -- -- 32
2019-03-24 14:00:00 20.2 19 Este 36 Este 0 -- -- 35
2019-03-24 13:00:00 19 25 Sudeste 44 Sudeste 0 -- -- 36
2019-03-24 12:00:00 17.8 26 Este 45 Este 0 -- -- 39
2019-03-24 11:00:00 16 30 Este 45 Este 0 -- -- 44
2019-03-24 10:00:00 14.4 30 Este 39 Este 0 -- -- 47
2019-03-24 09:00:00 13.1 24 Este 33 Este 0 -- -- 51
2019-03-24 08:00:00 11.1 17 Este 25 Este 0 -- -- 56
2019-03-24 07:00:00 11 21 Este 29 Este 0 -- -- 55
2019-03-24 06:00:00 11.1 18 Este 24 Este 0 -- -- 59
2019-03-24 05:00:00 11.1 16 Este 34 Este 0 -- -- 62
2019-03-24 04:00:00 12.6 21 Este 39 Este 0 -- -- 57
2019-03-24 03:00:00 13.3 20 Este 28 Este 0 -- -- 55
2019-03-24 02:00:00 13.1 18 Este 30 Este 0 -- -- 55
2019-03-24 01:00:00 13.8 20 Este 32 Este 0 -- -- 53
2019-03-24 00:00:00 13.5 24 Este 32 Este 0 -- -- 53
2019-03-23 23:00:00 13 18 Este 29 Este 0 -- -- 54
2019-03-23 22:00:00 14.1 19 Este 28 Este 0 -- -- 50
2019-03-23 21:00:00 15.2 15 Nordeste 33 Este 0 -- -- 47
2019-03-23 20:00:00 17.1 22 Este 34 Este 0 -- -- 41
2019-03-23 19:00:00 18.5 19 Este 41 Este 0 -- -- 36
2019-03-23 18:00:00 20.1 26 Este 49 Este 0 -- -- 31
2019-03-23 17:00:00 20.7 29 Sudeste 50 Este 0 -- -- 30
2019-03-23 16:00:00 20.9 30 Este 48 Este 0 -- -- 29
2019-03-23 15:00:00 20.8 29 Sudeste 47 Este 0 -- -- 31
2019-03-23 14:00:00 19.8 31 Este 46 Este 0 -- -- 32
2019-03-23 13:00:00 18.8 31 Este 50 Este 0 -- -- 36
2019-03-23 12:00:00 18.5 26 Este 40 Sudeste 0 -- -- 36
2019-03-23 11:00:00 16.9 26 Este 40 Este 0 -- -- 41
2019-03-23 10:00:00 15.3 23 Este 32 Este 0 -- -- 45
2019-03-23 09:00:00 13.9 12 Este 24 Este 0 -- -- 51
2019-03-23 08:00:00 12 18 Este 24 Este 0 -- -- 52
2019-03-23 07:00:00 11.4 19 Este 29 Nordeste 0 -- -- 53
2019-03-23 06:00:00 11.6 17 Este 27 Nordeste 0 -- -- 52
2019-03-23 05:00:00 11.8 20 Este 27 Este 0 -- -- 52
2019-03-23 04:00:00 11.9 21 Este 33 Este 0 -- -- 51
2019-03-23 03:00:00 12.6 25 Este 37 Este 0 -- -- 48
2019-03-23 02:00:00 13.2 23 Este 37 Este 0 -- -- 45
2019-03-23 01:00:00 13.9 22 Este 34 Este 0 -- -- 41
2019-03-23 00:00:00 14.6 19 Este 28 Este 0 -- -- 35
2019-03-22 23:00:00 14.2 15 Nordeste 21 Nordeste 0 -- -- 34
2019-03-22 22:00:00 12.8 13 Nordeste 15 Nordeste 0 -- -- 38
2019-03-22 21:00:00 12.4 11 Nordeste 14 Norte 0 -- -- 42
2019-03-22 20:00:00 13 11 Nordeste 15 Este 0 -- -- 45
2019-03-22 19:00:00 17.6 12 Este 30 Este 0 -- -- 31
2019-03-22 18:00:00 18.6 20 Este 29 Este 0 -- -- 29
2019-03-22 17:00:00 18.8 22 Sudeste 34 Este 0 -- -- 27
2019-03-22 16:00:00 18.7 22 Este 36 Este 0 -- -- 26
2019-03-22 15:00:00 17.9 23 Este 39 Sudeste 0 -- -- 30
2019-03-22 14:00:00 17.5 25 Este 41 Sudeste 0 -- -- 31
2019-03-22 13:00:00 16.6 24 Sudeste 36 Este 0 -- -- 34
2019-03-22 12:00:00 15.3 25 Sudeste 37 Sudeste 0 -- -- 34
2019-03-22 11:00:00 14 24 Este 36 Este 0 -- -- 36
2019-03-22 10:00:00 12.8 24 Este 35 Este 0 -- -- 36
2019-03-22 09:00:00 11.2 14 Este 26 Nordeste 0 -- -- 40
2019-03-22 08:00:00 9.5 15 Este 25 Este 0 -- -- 40
2019-03-22 07:00:00 8.8 17 Este 28 Este 0 -- -- 42
2019-03-22 06:00:00 9.7 20 Este 28 Este 0 -- -- 40
2019-03-22 05:00:00 9.7 18 Este 25 Este 0 -- -- 41
2019-03-22 04:00:00 10.3 16 Este 23 Este 0 -- -- 38
2019-03-22 03:00:00 11 16 Este 23 Nordeste 0 -- -- 36
2019-03-22 02:00:00 11.2 14 Este 18 Nordeste 0 -- -- 36
2019-03-22 01:00:00 8.8 13 Nordeste 16 Nordeste 0 -- -- 44
2019-03-22 00:00:00 9.9 14 Nordeste 17 Este 0 -- -- 41
2019-03-21 23:00:00 9.1 13 Nordeste 15 Nordeste 0 -- -- 49
2019-03-21 22:00:00 9.7 9 Nordeste 12 Nordeste 0 -- -- 49
2019-03-21 21:00:00 11.2 7 Norte 12 Norte 0 -- -- 42
2019-03-21 20:00:00 13.2 5 Noroeste 9 Noroeste 0 -- -- 40
2019-03-21 19:00:00 15.9 4 Sudeste 13 Sudeste 0 -- -- 32
2019-03-21 18:00:00 16.7 8 Sudeste 30 Este 0 -- -- 29
2019-03-21 17:00:00 17 14 Sudeste 28 Sudeste 0 -- -- 27
2019-03-21 16:00:00 17 13 Sudeste 32 Sudeste 0 -- -- 28
2019-03-21 15:00:00 16.6 12 Este 30 Sudeste 0 -- -- 31
2019-03-21 14:00:00 15.9 16 Este 33 Sudeste 0 -- -- 32
2019-03-21 13:00:00 15.3 20 Este 35 Este 0 -- -- 31
2019-03-21 12:00:00 14.6 18 Sudeste 35 Este 0 -- -- 35
2019-03-21 11:00:00 13.6 21 Este 35 Este 0 -- -- 29
2019-03-21 10:00:00 12.1 25 Este 38 Este 0 -- -- 40
2019-03-21 09:00:00 10.1 26 Este 33 Este 0 -- -- 50
2019-03-21 08:00:00 8.4 23 Este 30 Este 0 -- -- 48
2019-03-21 07:00:00 8 18 Este 22 Este 0 -- -- 47
2019-03-21 06:00:00 9.2 15 Nordeste 21 Nordeste 0 -- -- 42
2019-03-21 05:00:00 8.1 13 Este 18 Este 0 -- -- 47
2019-03-21 04:00:00 9 13 Este 15 Este 0 -- -- 44
2019-03-21 03:00:00 10.3 13 Nordeste 19 Nordeste 0 -- -- 40
2019-03-21 02:00:00 7.9 11 Nordeste 14 Nordeste 0 -- -- 49
2019-03-21 01:00:00 8.5 12 Nordeste 16 Este 0 -- -- 48
2019-03-21 00:00:00 10.4 13 Nordeste 16 Nordeste 0 -- -- 43